createdAt,value
2019-05-19T00:02:18.281Z,86550.25
2019-05-19T00:04:45.368Z,86548.37
2019-05-19T00:07:12.135Z,86549.52
2019-05-19T00:09:38.876Z,86542.55
2019-05-19T00:12:05.790Z,86540.32
2019-05-19T00:14:32.537Z,86545.94
2019-05-19T00:16:59.274Z,86545.58
2019-05-19T00:19:27.165Z,86545.58
2019-05-19T00:21:54.170Z,86546.73
2019-05-19T00:24:20.941Z,86544.83
2019-05-19T00:26:47.723Z,86546.33
2019-05-19T00:29:14.469Z,86542.03
2019-05-19T00:31:41.216Z,86533.41
2019-05-19T00:34:08.009Z,86535.84
2019-05-19T00:36:34.763Z,86535.84
2019-05-19T00:39:01.516Z,86537.92
2019-05-19T00:41:28.286Z,86525.72
2019-05-19T00:43:55.031Z,86528.55
2019-05-19T00:46:22.884Z,86529.86
2019-05-19T00:48:49.783Z,86524.80
2019-05-19T00:51:16.733Z,86520.10
2019-05-19T00:53:43.461Z,86519.73
2019-05-19T00:56:10.775Z,86522.40
2019-05-19T00:58:38.413Z,86519.02
2019-05-19T01:01:05.156Z,86521.28
2019-05-19T01:03:31.924Z,86517.53
2019-05-19T01:05:58.686Z,86519.80
2019-05-19T01:08:25.407Z,86515.86
2019-05-19T01:10:52.183Z,86513.03
2019-05-19T01:13:18.966Z,86509.09
2019-05-19T01:15:45.726Z,86509.28
2019-05-19T01:18:12.545Z,86504.78
2019-05-19T01:20:39.304Z,86499.92
2019-05-19T01:23:06.114Z,86497.66
2019-05-19T01:25:32.987Z,86499.52
2019-05-19T01:27:59.712Z,86503.86
2019-05-19T01:30:26.660Z,86498.60
2019-05-19T01:32:53.456Z,86496.90
2019-05-19T01:35:20.199Z,86500.48
2019-05-19T01:37:46.959Z,86492.03
2019-05-19T01:40:14.838Z,86489.41
2019-05-19T01:42:41.580Z,86488.09
2019-05-19T01:45:08.934Z,86479.25
2019-05-19T01:47:35.760Z,86486.61
2019-05-19T01:50:17.758Z,86478.53
2019-05-19T01:52:36.816Z,86480.95
2019-05-19T01:55:05.411Z,86481.91
2019-05-19T01:57:32.126Z,86483.23
2019-05-19T01:59:58.901Z,86483.98
2019-05-19T02:02:25.741Z,86486.05
2019-05-19T02:04:52.491Z,86489.06
2019-05-19T02:07:19.246Z,86479.51
2019-05-19T02:09:46.030Z,86478.00
2019-05-19T02:12:12.774Z,86479.31
2019-05-19T02:14:39.540Z,86474.62
2019-05-19T02:17:06.323Z,86475.53
2019-05-19T02:19:33.555Z,86472.74
2019-05-19T02:22:00.292Z,86474.62
2019-05-19T02:24:27.194Z,86470.88
2019-05-19T02:26:53.964Z,86473.33
2019-05-19T02:29:20.671Z,86463.38
2019-05-19T02:31:47.524Z,86460.02
2019-05-19T02:34:14.226Z,86454.02
2019-05-19T02:36:40.968Z,86453.65
2019-05-19T02:39:07.761Z,86463.97
2019-05-19T02:41:37.805Z,86452.14
2019-05-19T02:44:05.344Z,86458.13
2019-05-19T02:46:34.261Z,86457.56
2019-05-19T02:49:02.886Z,86455.33
2019-05-19T02:51:32.147Z,86446.69
2019-05-19T02:54:01.817Z,86445.38
2019-05-19T02:56:30.880Z,86449.69
2019-05-19T02:58:58.719Z,86445.38
2019-05-19T03:01:25.496Z,86450.83
2019-05-19T03:03:52.244Z,86446.30
2019-05-19T03:06:18.981Z,86448.00
2019-05-19T03:08:45.769Z,86442.95
2019-05-19T03:11:12.552Z,86440.16
2019-05-19T03:13:39.259Z,86434.31
2019-05-19T03:16:06.066Z,86437.14
2019-05-19T03:18:32.812Z,86442.75
2019-05-19T03:21:10.362Z,86438.05
2019-05-19T03:23:28.170Z,86441.23
2019-05-19T03:25:54.962Z,86437.33
2019-05-19T03:28:21.696Z,86443.14
2019-05-19T03:30:48.498Z,86436.58
2019-05-19T03:33:15.270Z,86434.70
2019-05-19T03:35:42.026Z,86446.53
2019-05-19T03:38:08.920Z,86439.92
2019-05-19T03:40:35.685Z,86438.81
2019-05-19T03:43:02.447Z,86441.63
2019-05-19T03:45:29.261Z,86434.48
2019-05-19T03:47:56.012Z,86436.19
2019-05-19T03:50:22.771Z,86440.87
2019-05-19T03:52:49.562Z,86437.33
2019-05-19T03:55:16.309Z,86439.17
2019-05-19T03:57:43.048Z,86441.05
2019-05-19T04:00:10.438Z,86438.81
2019-05-19T04:02:37.181Z,86439.56
2019-05-19T04:05:09.083Z,86439.56
2019-05-19T04:07:35.856Z,86434.48
2019-05-19T04:10:05.306Z,86433.55
2019-05-19T04:12:32.051Z,86422.69
2019-05-19T04:14:58.830Z,86425.67
2019-05-19T04:17:25.602Z,86431.48
2019-05-19T04:19:52.317Z,86433.00
2019-05-19T04:22:19.206Z,86423.80
2019-05-19T04:24:45.940Z,86426.23
2019-05-19T04:27:12.718Z,86428.66
2019-05-19T04:29:39.745Z,86432.60
2019-05-19T04:32:06.482Z,86429.42
2019-05-19T04:34:33.250Z,86420.78
2019-05-19T04:37:00.017Z,86423.61
2019-05-19T04:39:26.731Z,86424.92
2019-05-19T04:41:53.466Z,86420.22
2019-05-19T04:44:20.368Z,86419.83
2019-05-19T04:46:47.108Z,86414.21
2019-05-19T04:49:13.856Z,86420.94
2019-05-19T04:51:40.633Z,86418.31
2019-05-19T04:54:07.366Z,86416.05
2019-05-19T04:56:34.105Z,86421.86
2019-05-19T04:59:00.913Z,86413.78
2019-05-19T05:01:27.645Z,86418.25
2019-05-19T05:03:54.352Z,86418.37
2019-05-19T05:06:21.150Z,86416.66
2019-05-19T05:08:47.860Z,86415.14
2019-05-19T05:11:14.610Z,86410.80
2019-05-19T05:13:43.264Z,86408.17
2019-05-19T05:16:10.040Z,86414.34
2019-05-19T05:18:36.764Z,86413.38
2019-05-19T05:21:03.658Z,86405.89
2019-05-19T05:23:30.420Z,86401.34
2019-05-19T05:25:57.185Z,86403.19
2019-05-19T05:28:24.316Z,86397.92
2019-05-19T05:30:51.028Z,86397.36
2019-05-19T05:33:17.836Z,86396.24
2019-05-19T05:35:44.628Z,86390.99
2019-05-19T05:38:11.352Z,86393.83
2019-05-19T05:40:39.525Z,86394.21
2019-05-19T05:43:08.446Z,86393.61
2019-05-19T05:45:35.484Z,86399.62
2019-05-19T05:48:02.358Z,86396.56
2019-05-19T05:50:29.246Z,86405.75
2019-05-19T05:52:55.976Z,86395.23
2019-05-19T05:55:22.741Z,86392.96
2019-05-19T05:57:49.528Z,86396.70
2019-05-19T06:00:16.864Z,86398.54
2019-05-19T06:02:43.579Z,86396.45
2019-05-19T06:05:10.485Z,86391.03
2019-05-19T06:07:37.217Z,86391.20
2019-05-19T06:10:06.373Z,86394.94
2019-05-19T06:12:33.251Z,86386.28
2019-05-19T06:15:00.060Z,86391.14
2019-05-19T06:17:26.766Z,86388.17
2019-05-19T06:19:53.668Z,86390.44
2019-05-19T06:22:20.400Z,86387.81
2019-05-19T06:24:47.177Z,86386.50
2019-05-19T06:27:13.982Z,86390.64
2019-05-19T06:29:40.764Z,86387.96
2019-05-19T06:32:07.532Z,86386.07
2019-05-19T06:34:34.427Z,86385.28
2019-05-19T06:37:01.151Z,86383.55
2019-05-19T06:39:27.868Z,86380.70
2019-05-19T06:41:54.666Z,86385.36
2019-05-19T06:46:56.715Z,86392.08
2019-05-19T06:49:23.545Z,86381.91
2019-05-19T06:51:50.316Z,86387.52
2019-05-19T06:54:17.069Z,86392.36
2019-05-19T06:56:43.901Z,86395.37
2019-05-19T06:59:10.658Z,86399.89
2019-05-19T07:01:37.400Z,86394.58
2019-05-19T07:04:04.223Z,86394.20
2019-05-19T07:06:34.015Z,86392.14
2019-05-19T07:08:59.559Z,86389.11
2019-05-19T07:11:26.370Z,86387.18
2019-05-19T07:13:53.100Z,86388.69
2019-05-19T07:16:19.851Z,86385.66
2019-05-19T07:18:46.650Z,86382.81
2019-05-19T07:21:13.388Z,86389.94
2019-05-19T07:23:40.121Z,86380.16
2019-05-19T07:26:06.919Z,86382.17
2019-05-19T07:28:33.667Z,86384.59
2019-05-19T07:31:00.454Z,86387.39
2019-05-19T07:33:27.284Z,86380.59
2019-05-19T07:35:54.174Z,86381.91
2019-05-19T07:38:20.929Z,86382.67
2019-05-19T07:40:47.852Z,86384.34
2019-05-19T07:43:14.667Z,86383.38
2019-05-19T07:45:41.474Z,86380.58
2019-05-19T07:48:08.282Z,86385.44
2019-05-19T07:50:37.966Z,86386.01
2019-05-19T07:53:03.568Z,86381.06
2019-05-19T07:55:30.476Z,86381.82
2019-05-19T07:57:57.231Z,86382.55
2019-05-19T08:00:23.983Z,86387.22
2019-05-19T08:02:50.856Z,86385.51
2019-05-19T08:05:17.588Z,86383.41
2019-05-19T08:07:44.354Z,86389.38
2019-05-19T08:10:11.751Z,86391.23
2019-05-19T08:12:38.507Z,86390.08
2019-05-19T08:15:06.654Z,86387.05
2019-05-19T08:17:33.572Z,86387.23
2019-05-19T08:20:00.300Z,86391.32
2019-05-19T08:22:27.065Z,86387.93
2019-05-19T08:24:53.961Z,86386.96
2019-05-19T08:27:20.717Z,86397.27
2019-05-19T08:29:47.554Z,86393.09
2019-05-19T08:32:14.343Z,86388.90
2019-05-19T08:34:41.105Z,86386.05
2019-05-19T08:37:07.837Z,86391.91
2019-05-19T08:39:34.657Z,86392.63
2019-05-19T08:42:01.395Z,86390.97
2019-05-19T08:44:28.156Z,86387.34
2019-05-19T08:46:55.224Z,86387.84
2019-05-19T08:49:22.205Z,86392.52
2019-05-19T08:51:49.008Z,86385.31
2019-05-19T08:54:18.843Z,86382.80
2019-05-19T08:56:44.437Z,86386.34
2019-05-19T08:59:11.187Z,86384.72
2019-05-19T09:01:37.978Z,86382.21
2019-05-19T09:04:04.724Z,86375.00
2019-05-19T09:06:31.488Z,86372.83
2019-05-19T09:08:58.280Z,86379.92
2019-05-19T09:11:25.028Z,86379.19
2019-05-19T09:13:51.813Z,86384.75
2019-05-19T09:16:27.889Z,86375.13
2019-05-19T09:18:54.583Z,86371.86
2019-05-19T09:21:21.395Z,86365.91
2019-05-19T09:23:48.177Z,86370.73
2019-05-19T09:26:14.924Z,86366.45
2019-05-19T09:28:41.693Z,86365.05
2019-05-19T09:31:08.633Z,86367.42
2019-05-19T09:33:35.394Z,86359.63
2019-05-19T09:36:02.131Z,86358.53
2019-05-19T09:38:28.944Z,86368.56
2019-05-19T09:40:55.725Z,86356.34
2019-05-19T09:43:22.477Z,86359.39
2019-05-19T09:45:49.331Z,86357.92
2019-05-19T09:48:16.113Z,86355.76
2019-05-19T09:50:42.888Z,86357.34
2019-05-19T09:53:09.691Z,86358.77
2019-05-19T09:55:36.442Z,86357.74
2019-05-19T09:58:03.284Z,86354.27
2019-05-19T10:00:30.194Z,86357.09
2019-05-19T10:02:56.943Z,86351.03
2019-05-19T10:05:23.705Z,86353.03
2019-05-19T10:07:50.532Z,86343.29
2019-05-19T10:10:21.140Z,86343.88
2019-05-19T10:12:47.869Z,86343.98
2019-05-19T10:15:14.893Z,86345.54
2019-05-19T10:17:44.150Z,86337.04
2019-05-19T10:20:12.827Z,86336.88
2019-05-19T10:22:39.633Z,86340.20
2019-05-19T10:25:20.940Z,86337.81
2019-05-19T10:27:37.329Z,86334.80
2019-05-19T10:30:07.645Z,86336.64
2019-05-19T10:32:34.456Z,86331.23
2019-05-19T10:35:03.075Z,86331.52
2019-05-19T10:37:31.361Z,86323.83
2019-05-19T10:39:58.131Z,86328.64
2019-05-19T10:42:25.258Z,86324.70
2019-05-19T10:44:52.707Z,86325.36
2019-05-19T10:47:19.602Z,86326.59
2019-05-19T10:49:46.842Z,86324.12
2019-05-19T10:52:13.786Z,86319.25
2019-05-19T10:54:40.516Z,86321.50
2019-05-19T10:57:07.272Z,86312.91
2019-05-19T10:59:34.084Z,86318.45
2019-05-19T11:02:00.816Z,86315.30
2019-05-19T11:04:27.558Z,86308.09
2019-05-19T11:06:54.352Z,86309.72
2019-05-19T11:09:21.143Z,86302.84
2019-05-19T11:11:47.820Z,86298.55
2019-05-19T11:14:14.732Z,86303.52
2019-05-19T11:16:41.493Z,86301.30
2019-05-19T11:19:08.210Z,86303.04
2019-05-19T11:21:35.016Z,86299.23
2019-05-19T11:24:01.795Z,86304.63
2019-05-19T11:26:28.534Z,86303.38
2019-05-19T11:28:56.014Z,86302.58
2019-05-19T11:31:22.845Z,86309.74
2019-05-19T11:33:49.614Z,86303.30
2019-05-19T11:36:17.000Z,86304.72
2019-05-19T11:38:43.771Z,86300.56
2019-05-19T11:41:10.517Z,86299.91
2019-05-19T11:43:37.339Z,86301.80
2019-05-19T11:46:04.115Z,86290.82
2019-05-19T11:48:30.835Z,86298.67
2019-05-19T11:50:57.892Z,86292.39
2019-05-19T11:53:24.687Z,86289.66
2019-05-19T11:56:05.460Z,86292.05
2019-05-19T11:58:20.245Z,86288.05
2019-05-19T12:00:47.005Z,86289.45
2019-05-19T12:03:13.774Z,86287.30
2019-05-19T12:05:40.574Z,86288.80
2019-05-19T12:08:07.310Z,86288.87
2019-05-19T12:10:34.056Z,86284.50
2019-05-19T12:13:00.853Z,86288.15
2019-05-19T12:15:27.592Z,86292.47
2019-05-19T12:17:54.336Z,86292.88
2019-05-19T12:20:21.186Z,86293.95
2019-05-19T12:22:47.892Z,86288.66
2019-05-19T12:25:14.825Z,86291.15
2019-05-19T12:27:41.727Z,86292.13
2019-05-19T12:30:12.372Z,86286.85
2019-05-19T12:32:39.166Z,86293.05
2019-05-19T12:35:06.053Z,86292.80
2019-05-19T12:37:32.828Z,86293.47
2019-05-19T12:39:59.538Z,86287.27
2019-05-19T12:42:26.380Z,86288.42
2019-05-19T12:44:53.155Z,86294.30
2019-05-19T12:47:19.922Z,86291.22
2019-05-19T12:49:46.732Z,86295.11
2019-05-19T12:52:13.452Z,86294.20
2019-05-19T12:54:40.237Z,86297.34
2019-05-19T12:57:07.006Z,86291.46
2019-05-19T12:59:33.734Z,86289.33
2019-05-19T13:02:00.469Z,86295.77
2019-05-19T13:04:27.284Z,86298.41
2019-05-19T13:06:54.046Z,86296.34
2019-05-19T13:09:20.802Z,86293.27
2019-05-19T13:11:47.612Z,86293.45
2019-05-19T13:14:14.359Z,86295.35
2019-05-19T13:16:41.106Z,86294.02
2019-05-19T13:19:07.978Z,86294.53
2019-05-19T13:21:34.741Z,86286.08
2019-05-19T13:24:01.510Z,86287.68
2019-05-19T13:26:28.323Z,86288.64
2019-05-19T13:28:55.067Z,86286.59
2019-05-19T13:31:21.818Z,86283.20
2019-05-19T13:33:48.800Z,86281.48
2019-05-19T13:36:15.905Z,86281.88
2019-05-19T13:38:42.608Z,86284.20
2019-05-19T13:41:09.515Z,86281.97
2019-05-19T13:43:36.241Z,86278.62
2019-05-19T13:46:02.996Z,86278.23
2019-05-19T13:48:29.894Z,86272.76
2019-05-19T13:50:56.664Z,86274.23
2019-05-19T13:53:23.388Z,86277.03
2019-05-19T13:55:50.276Z,86265.43
2019-05-19T13:58:17.021Z,86268.30
2019-05-19T14:00:43.747Z,86267.76
2019-05-19T14:03:10.636Z,86270.66
2019-05-19T14:05:37.379Z,86267.30
2019-05-19T14:08:04.182Z,86270.16
2019-05-19T14:10:30.957Z,86266.66
2019-05-19T14:12:57.699Z,86267.00
2019-05-19T14:15:24.470Z,86269.41
2019-05-19T14:17:51.294Z,86270.80
2019-05-19T14:20:18.038Z,86258.45
2019-05-19T14:22:44.779Z,86264.75
2019-05-19T14:25:11.813Z,86257.88
2019-05-19T14:27:38.554Z,86253.38
2019-05-19T14:30:07.279Z,86252.05
2019-05-19T14:32:34.176Z,86249.91
2019-05-19T14:35:00.953Z,86249.09
2019-05-19T14:37:27.697Z,86249.52
2019-05-19T14:39:54.528Z,86250.09
2019-05-19T14:42:21.266Z,86251.09
2019-05-19T14:44:48.041Z,86255.33
2019-05-19T14:47:15.840Z,86256.33
2019-05-19T14:49:45.521Z,86262.11
2019-05-19T14:52:11.601Z,86264.25
2019-05-19T14:54:38.453Z,86263.11
2019-05-19T14:57:05.198Z,86264.71
2019-05-19T14:59:31.960Z,86271.83
2019-05-19T15:01:58.760Z,86276.00
2019-05-19T15:04:25.490Z,86271.92
2019-05-19T15:06:52.286Z,86276.83
2019-05-19T15:09:19.065Z,86278.23
2019-05-19T15:11:46.122Z,86277.66
2019-05-19T15:14:12.867Z,86282.05
2019-05-19T15:16:39.804Z,86289.99
2019-05-19T15:19:06.562Z,86291.63
2019-05-19T15:21:33.543Z,86299.42
2019-05-19T15:24:00.369Z,86299.87
2019-05-19T15:26:29.226Z,86302.18
2019-05-19T15:28:55.962Z,86292.89
2019-05-19T15:31:22.805Z,86297.06
2019-05-19T15:33:49.555Z,86301.26
2019-05-19T15:36:16.393Z,86298.10
2019-05-19T15:38:43.312Z,86300.70
2019-05-19T15:41:10.321Z,86300.77
2019-05-19T15:43:37.236Z,86302.23
2019-05-19T15:46:04.052Z,86308.97
2019-05-19T15:48:30.833Z,86308.81
2019-05-19T15:50:57.941Z,86313.98
2019-05-19T15:53:26.806Z,86314.01
2019-05-19T15:55:57.088Z,86314.23
2019-05-19T15:58:23.828Z,86312.42
2019-05-19T16:00:50.638Z,86308.52
2019-05-19T16:03:18.990Z,86315.34
2019-05-19T16:05:45.750Z,86311.05
2019-05-19T16:08:12.848Z,86315.23
2019-05-19T16:10:39.622Z,86316.52
2019-05-19T16:13:06.401Z,86318.28
2019-05-19T16:15:33.303Z,86316.81
2019-05-19T16:18:01.884Z,86319.27
2019-05-19T16:20:28.624Z,86317.20
2019-05-19T16:22:55.432Z,86317.04
2019-05-19T16:25:22.279Z,86319.68
2019-05-19T16:27:49.023Z,86319.23
2019-05-19T16:30:16.052Z,86314.40
2019-05-19T16:32:42.849Z,86316.81
2019-05-19T16:35:09.809Z,86317.30
2019-05-19T16:37:36.722Z,86322.02
2019-05-19T16:40:05.749Z,86319.79
2019-05-19T16:42:32.589Z,86318.70
2019-05-19T16:44:59.412Z,86319.19
2019-05-19T16:47:26.140Z,86325.56
2019-05-19T16:49:53.285Z,86318.70
2019-05-19T16:52:20.203Z,86318.63
2019-05-19T16:54:46.979Z,86315.60
2019-05-19T16:57:13.704Z,86318.47
2019-05-19T16:59:40.519Z,86321.27
2019-05-19T17:02:08.665Z,86318.05
2019-05-19T17:04:35.403Z,86314.44
2019-05-19T17:07:03.080Z,86313.30
2019-05-19T17:09:30.096Z,86316.28
2019-05-19T17:11:56.825Z,86319.67
2019-05-19T17:14:28.408Z,86316.09
2019-05-19T17:16:55.549Z,86315.34
2019-05-19T17:19:22.525Z,86320.52
2019-05-19T17:21:49.486Z,86316.62
2019-05-19T17:24:17.603Z,86318.52
2019-05-19T17:26:44.360Z,86316.44
2019-05-19T17:29:11.149Z,86314.63
2019-05-19T17:31:40.193Z,86322.02
2019-05-19T17:34:06.988Z,86324.09
2019-05-19T17:36:34.277Z,86318.94
2019-05-19T17:39:01.119Z,86318.59
2019-05-19T17:41:27.867Z,86321.98
2019-05-19T17:43:54.665Z,86318.59
2019-05-19T17:46:21.426Z,86319.91
2019-05-19T17:48:48.163Z,86315.61
2019-05-19T17:51:15.098Z,86320.94
2019-05-19T17:53:41.828Z,86323.23
2019-05-19T17:56:08.674Z,86316.14
2019-05-19T17:58:36.072Z,86314.41
2019-05-19T18:01:02.935Z,86316.52
2019-05-19T18:03:29.979Z,86312.48
2019-05-19T18:05:56.792Z,86316.11
2019-05-19T18:08:23.560Z,86317.31
2019-05-19T18:10:50.313Z,86320.67
2019-05-19T18:13:17.133Z,86310.94
2019-05-19T18:15:43.884Z,86321.30
2019-05-19T18:18:10.633Z,86311.95
2019-05-19T18:20:37.544Z,86313.22
2019-05-19T18:23:05.999Z,86319.00
2019-05-19T18:25:32.994Z,86320.31
2019-05-19T18:27:59.956Z,86315.45
2019-05-19T18:30:26.756Z,86313.22
2019-05-19T18:32:53.495Z,86306.28
2019-05-19T18:35:20.288Z,86304.25
2019-05-19T18:37:47.125Z,86305.23
2019-05-19T18:40:14.179Z,86303.98
2019-05-19T18:42:43.449Z,86307.81
2019-05-19T18:45:10.710Z,86310.33
2019-05-19T18:47:37.476Z,86303.55
2019-05-19T18:50:07.460Z,86305.43
2019-05-19T18:52:34.197Z,86306.47
2019-05-19T18:55:00.934Z,86305.19
2019-05-19T18:57:27.744Z,86310.34
2019-05-19T18:59:54.467Z,86306.13
2019-05-19T19:02:21.215Z,86305.53
2019-05-19T19:04:48.059Z,86301.14
2019-05-19T19:07:14.803Z,86313.44
2019-05-19T19:09:42.188Z,86316.03
2019-05-19T19:12:09.096Z,86322.14
2019-05-19T19:14:35.843Z,86316.96
2019-05-19T19:17:02.601Z,86324.38
2019-05-19T19:19:29.429Z,86333.81
2019-05-19T19:21:56.193Z,86328.60
2019-05-19T19:24:22.956Z,86329.03
2019-05-19T19:26:49.793Z,86328.33
2019-05-19T19:29:16.571Z,86330.08
2019-05-19T19:31:48.714Z,86330.16
2019-05-19T19:34:12.087Z,86332.03
2019-05-19T19:36:38.919Z,86334.72
2019-05-19T19:39:05.827Z,86331.52
2019-05-19T19:41:33.190Z,86324.59
2019-05-19T19:44:19.966Z,86323.62
2019-05-19T19:46:47.135Z,86323.08
2019-05-19T19:49:14.223Z,86324.80
2019-05-19T19:51:41.256Z,86319.05
2019-05-19T19:54:08.316Z,86320.07
2019-05-19T19:56:35.046Z,86320.75
2019-05-19T19:59:01.829Z,86323.03
2019-05-19T20:01:28.587Z,86312.16
2019-05-19T20:03:55.336Z,86324.91
2019-05-19T20:06:22.135Z,86319.48
2019-05-19T20:08:49.039Z,86313.88
2019-05-19T20:11:15.808Z,86310.30
2019-05-19T20:13:42.542Z,86309.54
2019-05-19T20:16:09.366Z,86300.73
2019-05-19T20:18:36.101Z,86303.72
2019-05-19T20:21:02.874Z,86303.72
2019-05-19T20:23:29.739Z,86300.52
2019-05-19T20:25:56.497Z,86298.10
2019-05-19T20:28:23.317Z,86299.82
2019-05-19T20:30:50.175Z,86298.31
2019-05-19T20:33:17.016Z,86302.82
2019-05-19T20:35:43.761Z,86295.16
2019-05-19T20:38:10.667Z,86294.20
2019-05-19T20:40:37.460Z,86293.99
2019-05-19T20:43:04.203Z,86293.45
2019-05-19T20:45:32.319Z,86288.55
2019-05-19T20:47:59.046Z,86294.77
2019-05-19T20:50:25.795Z,86296.24
2019-05-19T20:52:52.615Z,86294.41
2019-05-19T20:55:19.418Z,86289.36
2019-05-19T20:57:46.127Z,86286.59
2019-05-19T21:00:14.934Z,86284.80
2019-05-19T21:02:41.681Z,86285.05
2019-05-19T21:05:08.527Z,86285.30
2019-05-19T21:07:35.353Z,86287.80
2019-05-19T21:10:04.587Z,86286.94
2019-05-19T21:12:31.352Z,86284.72
2019-05-19T21:15:17.950Z,86281.69
2019-05-19T21:17:44.691Z,86288.30
2019-05-19T21:20:11.565Z,86287.23
2019-05-19T21:22:38.438Z,86286.13
2019-05-19T21:25:06.653Z,86283.34
2019-05-19T21:27:33.417Z,86285.98
2019-05-19T21:30:00.400Z,86282.63
2019-05-19T21:32:27.153Z,86284.31
2019-05-19T21:34:53.901Z,86284.91
2019-05-19T21:37:20.837Z,86280.25
2019-05-19T21:39:47.611Z,86277.44
2019-05-19T21:42:14.407Z,86277.23
2019-05-19T21:44:41.412Z,86278.73
2019-05-19T21:47:08.146Z,86283.41
2019-05-19T21:49:34.916Z,86282.33
2019-05-19T21:52:01.808Z,86284.56
2019-05-19T21:54:28.544Z,86278.94
2019-05-19T21:56:55.287Z,86275.95
2019-05-19T21:59:22.227Z,86273.53
2019-05-19T22:01:48.912Z,86269.95
2019-05-19T22:04:15.668Z,86267.72
2019-05-19T22:06:42.581Z,86263.78
2019-05-19T22:09:09.329Z,86257.02
2019-05-19T22:11:36.091Z,86252.53
2019-05-19T22:14:02.995Z,86260.77
2019-05-19T22:16:29.731Z,86261.00
2019-05-19T22:18:56.464Z,86259.89
2019-05-19T22:21:23.397Z,86254.05
2019-05-19T22:23:50.121Z,86252.97
2019-05-19T22:26:16.878Z,86253.52
2019-05-19T22:28:43.669Z,86250.89
2019-05-19T22:31:10.423Z,86247.55
2019-05-19T22:33:37.160Z,86245.30
2019-05-19T22:36:04.060Z,86242.70
2019-05-19T22:38:30.815Z,86247.24
2019-05-19T22:40:57.599Z,86257.55
2019-05-19T22:43:24.428Z,86262.05
2019-05-19T22:45:51.183Z,86259.63
2019-05-19T22:48:17.954Z,86253.27
2019-05-19T22:50:44.770Z,86261.14
2019-05-19T22:53:11.483Z,86270.53
2019-05-19T22:55:38.241Z,86273.50
2019-05-19T22:58:05.126Z,86275.34
2019-05-19T23:00:31.919Z,86269.38
2019-05-19T23:02:58.640Z,86270.69
2019-05-19T23:05:25.441Z,86269.41
2019-05-19T23:07:52.172Z,86266.19
2019-05-19T23:10:20.926Z,86262.80
2019-05-19T23:12:47.723Z,86264.84
2019-05-19T23:15:15.248Z,86254.17
2019-05-19T23:17:41.992Z,86262.01
2019-05-19T23:20:08.889Z,86249.64
2019-05-19T23:22:35.630Z,86248.32
2019-05-19T23:25:04.790Z,86248.52
2019-05-19T23:27:31.605Z,86253.97
2019-05-19T23:29:58.378Z,86258.51
2019-05-19T23:32:25.102Z,86253.62
2019-05-19T23:34:51.992Z,86258.87
2019-05-19T23:37:18.782Z,86255.48
2019-05-19T23:39:45.528Z,86247.97
2019-05-19T23:42:12.685Z,86261.69
2019-05-19T23:44:39.399Z,86258.91
2019-05-19T23:47:06.142Z,86260.58
2019-05-19T23:49:33.032Z,86262.61
2019-05-19T23:51:59.782Z,86266.95
2019-05-19T23:54:26.527Z,86263.96
2019-05-19T23:56:53.405Z,86260.94
2019-05-19T23:59:20.152Z,86263.96
